Time;durP1;ratioP1;P1;durP2;ratioP2;P2;SDS_P1;SDS_P2;PMS_P1;PMS_P2;Temp;Humidity;BMP_temperature;BMP_pressure;BME280_temperature;BME280_humidity;BME280_pressure;Samples;Min_cycle;Max_cycle;Signal;HPM_P1;HPM_P2
2021/08/25 00:02:05;;;;;;;8.15;5.15;;;;;;;;;;5021767;28;20536;-68
2021/08/25 00:04:30;;;;;;;7.90;5.20;;;;;;;;;;5027132;28;20017;-68
2021/08/25 00:06:56;;;;;;;7.40;5.38;;;;;;;;;;5027273;28;20076;-67
2021/08/25 00:09:21;;;;;;;8.10;5.15;;;;;;;;;;5024076;28;20040;-69
2021/08/25 00:11:46;;;;;;;7.47;4.88;;;;;;;;;;5028595;28;20086;-68
2021/08/25 00:14:11;;;;;;;6.18;4.30;;;;;;;;;;5022760;28;20366;-68
2021/08/25 00:16:36;;;;;;;8.18;5.22;;;;;;;;;;5027872;28;20037;-68
2021/08/25 00:19:02;;;;;;;7.45;4.70;;;;;;;;;;5026431;28;20021;-68
2021/08/25 00:21:27;;;;;;;7.40;4.63;;;;;;;;;;5029399;28;20039;-68
2021/08/25 00:23:52;;;;;;;6.77;4.60;;;;;;;;;;5025406;28;20021;-67
2021/08/25 00:26:17;;;;;;;10.85;4.88;;;;;;;;;;5030309;28;20280;-68
2021/08/25 00:28:42;;;;;;;7.50;5.13;;;;;;;;;;5024936;28;20018;-68
2021/08/25 00:31:08;;;;;;;8.95;5.47;;;;;;;;;;5027136;28;20121;-68
2021/08/25 00:33:33;;;;;;;8.98;4.97;;;;;;;;;;5028684;28;20382;-67
2021/08/25 00:35:58;;;;;;;7.78;5.35;;;;;;;;;;5030026;28;20798;-68
2021/08/25 00:38:23;;;;;;;9.13;6.05;;;;;;;;;;5027239;28;20029;-67
2021/08/25 00:40:48;;;;;;;8.43;5.50;;;;;;;;;;5029791;28;20137;-67
2021/08/25 00:43:14;;;;;;;8.73;5.40;;;;;;;;;;5026477;28;20280;-67
2021/08/25 00:45:40;;;;;;;7.75;5.55;;;;;;;;;;5029628;28;20036;-67
2021/08/25 00:48:05;;;;;;;9.15;5.60;;;;;;;;;;5031854;28;20021;-68
2021/08/25 00:50:30;;;;;;;8.18;5.00;;;;;;;;;;5028907;28;20057;-68
2021/08/25 00:52:56;;;;;;;8.15;5.55;;;;;;;;;;5028135;28;20120;-68
2021/08/25 00:55:21;;;;;;;7.65;5.20;;;;;;;;;;5028185;28;20454;-68
2021/08/25 00:57:46;;;;;;;8.98;5.93;;;;;;;;;;5027101;28;20041;-68
2021/08/25 01:00:13;;;;;;;10.90;6.40;;;;;;;;;;5023912;28;20022;-67
2021/08/25 01:02:45;;;;;;;8.57;5.78;;;;;;;;;;5027153;28;20118;-68
2021/08/25 01:05:11;;;;;;;7.40;5.55;;;;;;;;;;5029963;28;20017;-68
2021/08/25 01:07:37;;;;;;;8.77;6.18;;;;;;;;;;5029956;28;20458;-67
2021/08/25 01:10:22;;;;;;;11.10;6.50;;;;;;;;;;5027896;28;20018;-66
2021/08/25 01:12:47;;;;;;;8.88;6.55;;;;;;;;;;5029894;28;20056;-69
2021/08/25 01:15:13;;;;;;;10.07;6.30;;;;;;;;;;5027990;28;20031;-69
2021/08/25 01:17:38;;;;;;;12.38;6.53;;;;;;;;;;5030831;28;20033;-69
2021/08/25 01:20:08;;;;;;;11.23;7.05;;;;;;;;;;5026508;28;20493;-69
2021/08/25 01:22:34;;;;;;;9.45;6.82;;;;;;;;;;5024016;28;20021;-68
2021/08/25 01:25:00;;;;;;;10.32;7.55;;;;;;;;;;5028082;28;20022;-68
2021/08/25 01:27:27;;;;;;;11.45;6.88;;;;;;;;;;5028835;28;20030;-69
2021/08/25 01:29:53;;;;;;;10.32;7.38;;;;;;;;;;5020579;28;20018;-69
2021/08/25 01:32:18;;;;;;;11.48;7.00;;;;;;;;;;5021964;28;20393;-68
2021/08/25 01:34:57;;;;;;;8.82;6.40;;;;;;;;;;5022676;28;20025;-69
2021/08/25 01:37:22;;;;;;;10.15;6.60;;;;;;;;;;5029234;28;20037;-69
2021/08/25 01:39:48;;;;;;;9.25;6.22;;;;;;;;;;5027783;28;20029;-69
2021/08/25 01:42:14;;;;;;;9.07;6.60;;;;;;;;;;5026522;28;20588;-69
2021/08/25 01:44:39;;;;;;;9.05;6.65;;;;;;;;;;5022243;28;20022;-68
2021/08/25 01:47:04;;;;;;;12.15;7.28;;;;;;;;;;5028030;28;20028;-69
2021/08/25 01:49:29;;;;;;;8.73;6.25;;;;;;;;;;5020633;28;20050;-69
2021/08/25 01:51:58;;;;;;;10.63;7.15;;;;;;;;;;5030837;28;20121;-69
2021/08/25 01:54:23;;;;;;;10.27;6.43;;;;;;;;;;5025001;28;20090;-70
2021/08/25 01:56:48;;;;;;;10.43;7.47;;;;;;;;;;5028175;28;20050;-68
2021/08/25 01:59:13;;;;;;;11.20;6.97;;;;;;;;;;5026844;28;20026;-69
2021/08/25 02:01:38;;;;;;;9.23;6.53;;;;;;;;;;5025248;28;20815;-69
2021/08/25 02:04:04;;;;;;;9.43;6.57;;;;;;;;;;5025398;28;20079;-68
2021/08/25 02:06:29;;;;;;;10.25;6.80;;;;;;;;;;5019645;28;20276;-68
2021/08/25 02:08:54;;;;;;;9.18;6.90;;;;;;;;;;5027336;28;20267;-69
2021/08/25 02:11:19;;;;;;;9.27;6.57;;;;;;;;;;5024885;28;20029;-68
2021/08/25 02:13:45;;;;;;;9.68;6.55;;;;;;;;;;5028668;28;20415;-68
2021/08/25 02:16:10;;;;;;;10.32;7.45;;;;;;;;;;5027542;28;20053;-68
2021/08/25 02:18:35;;;;;;;11.35;6.45;;;;;;;;;;5023243;28;20135;-67
2021/08/25 02:21:00;;;;;;;9.82;7.18;;;;;;;;;;5030975;28;20363;-68
2021/08/25 02:23:26;;;;;;;9.25;6.57;;;;;;;;;;5030134;28;20025;-68
2021/08/25 02:25:51;;;;;;;10.02;7.38;;;;;;;;;;5025833;28;20030;-68
2021/08/25 02:28:16;;;;;;;11.60;7.38;;;;;;;;;;5023153;28;20026;-67
2021/08/25 02:30:41;;;;;;;10.98;7.63;;;;;;;;;;5027717;28;20473;-68
2021/08/25 02:33:07;;;;;;;11.27;7.13;;;;;;;;;;5021382;28;20400;-68
2021/08/25 02:35:32;;;;;;;11.52;7.57;;;;;;;;;;5021870;28;20084;-68
2021/08/25 02:37:57;;;;;;;12.85;7.72;;;;;;;;;;5026764;28;20037;-68
2021/08/25 02:40:24;;;;;;;11.05;7.60;;;;;;;;;;5028912;28;20376;-67
2021/08/25 02:42:49;;;;;;;11.77;7.97;;;;;;;;;;5026630;28;20048;-67
2021/08/25 02:45:15;;;;;;;9.73;7.18;;;;;;;;;;5021882;28;20085;-69
2021/08/25 02:47:40;;;;;;;11.02;7.57;;;;;;;;;;5029008;28;20025;-67
2021/08/25 02:50:07;;;;;;;11.65;7.75;;;;;;;;;;5025604;28;20041;-67
2021/08/25 02:52:32;;;;;;;13.15;8.60;;;;;;;;;;5031014;28;20033;-67
2021/08/25 02:54:57;;;;;;;12.15;7.72;;;;;;;;;;5023285;28;20160;-68
2021/08/25 02:57:22;;;;;;;14.95;8.73;;;;;;;;;;5025965;28;20025;-67
2021/08/25 02:59:48;;;;;;;11.90;8.55;;;;;;;;;;5027711;28;20305;-67
2021/08/25 03:02:13;;;;;;;11.43;7.97;;;;;;;;;;5020179;28;20033;-68
2021/08/25 03:04:38;;;;;;;14.93;8.50;;;;;;;;;;5025774;28;20800;-67
2021/08/25 03:07:03;;;;;;;12.50;8.45;;;;;;;;;;5026099;28;20283;-68
2021/08/25 03:09:28;;;;;;;10.82;7.38;;;;;;;;;;5016541;28;20279;-67
2021/08/25 03:11:54;;;;;;;12.73;8.30;;;;;;;;;;5024535;28;20029;-67
2021/08/25 03:14:19;;;;;;;10.82;8.13;;;;;;;;;;5028149;28;20284;-67
2021/08/25 03:16:44;;;;;;;12.63;7.53;;;;;;;;;;5024152;28;20022;-67
2021/08/25 03:19:09;;;;;;;12.68;8.23;;;;;;;;;;5020967;28;20121;-68
2021/08/25 03:21:34;;;;;;;11.45;7.93;;;;;;;;;;5025667;28;20477;-66
2021/08/25 03:23:59;;;;;;;10.90;7.65;;;;;;;;;;5022424;28;20203;-67
2021/08/25 03:26:25;;;;;;;12.35;8.38;;;;;;;;;;5024173;28;20041;-68
2021/08/25 03:28:50;;;;;;;13.35;8.55;;;;;;;;;;5029069;28;20466;-67
2021/08/25 03:31:15;;;;;;;12.68;7.82;;;;;;;;;;5026750;28;20575;-67
2021/08/25 03:33:40;;;;;;;12.65;8.38;;;;;;;;;;5020143;28;20036;-67
2021/08/25 03:36:05;;;;;;;14.95;8.32;;;;;;;;;;5024260;28;20053;-67
2021/08/25 03:38:31;;;;;;;13.27;8.55;;;;;;;;;;5025817;28;20048;-68
2021/08/25 03:40:56;;;;;;;12.90;7.83;;;;;;;;;;5022321;28;20036;-67
2021/08/25 03:43:21;;;;;;;13.77;8.05;;;;;;;;;;5027288;28;20280;-67
2021/08/25 03:45:46;;;;;;;19.65;8.57;;;;;;;;;;5025572;28;20112;-68
2021/08/25 03:48:11;;;;;;;11.45;8.55;;;;;;;;;;5025369;28;20532;-67
2021/08/25 03:50:37;;;;;;;14.45;8.50;;;;;;;;;;5026971;28;20099;-67
2021/08/25 03:53:02;;;;;;;11.35;7.88;;;;;;;;;;5020125;28;20040;-68
2021/08/25 03:55:27;;;;;;;11.95;7.65;;;;;;;;;;5027477;28;20025;-67
2021/08/25 03:57:52;;;;;;;13.60;8.07;;;;;;;;;;5027944;28;20037;-67
2021/08/25 04:00:19;;;;;;;11.20;7.57;;;;;;;;;;5027389;28;20021;-68
2021/08/25 04:02:44;;;;;;;12.48;8.38;;;;;;;;;;5022705;28;20018;-68
2021/08/25 04:05:09;;;;;;;12.30;7.88;;;;;;;;;;5028995;28;20020;-68
2021/08/25 04:07:34;;;;;;;13.25;7.80;;;;;;;;;;5024505;28;20041;-68
2021/08/25 04:09:59;;;;;;;13.35;8.52;;;;;;;;;;5021215;28;20491;-67
2021/08/25 04:12:25;;;;;;;15.27;8.95;;;;;;;;;;5018163;28;20034;-68
2021/08/25 04:14:50;;;;;;;12.40;8.43;;;;;;;;;;5027689;28;20280;-67
2021/08/25 04:17:15;;;;;;;12.63;8.80;;;;;;;;;;5027905;28;20077;-67
2021/08/25 04:19:40;;;;;;;13.35;9.07;;;;;;;;;;5024061;28;20029;-67
2021/08/25 04:22:05;;;;;;;15.68;9.70;;;;;;;;;;5027405;28;20080;-67
2021/08/25 04:24:31;;;;;;;13.38;9.43;;;;;;;;;;5021249;28;20026;-67
2021/08/25 04:26:56;;;;;;;13.90;8.88;;;;;;;;;;5021772;28;20045;-67
2021/08/25 04:29:21;;;;;;;21.25;9.55;;;;;;;;;;5019167;28;20474;-68
2021/08/25 04:31:46;;;;;;;15.63;9.80;;;;;;;;;;5017816;28;20041;-67
2021/08/25 04:34:11;;;;;;;15.55;10.50;;;;;;;;;;5026915;28;20048;-68
2021/08/25 04:36:37;;;;;;;14.65;9.45;;;;;;;;;;5027322;28;20037;-67
2021/08/25 04:39:02;;;;;;;14.93;10.20;;;;;;;;;;5022143;28;20018;-68
2021/08/25 04:41:27;;;;;;;14.52;9.93;;;;;;;;;;5021818;28;20029;-68
2021/08/25 04:43:53;;;;;;;15.23;10.43;;;;;;;;;;5020850;28;20029;-66
2021/08/25 04:46:18;;;;;;;15.40;10.15;;;;;;;;;;5018110;28;20163;-67
2021/08/25 04:48:43;;;;;;;16.20;10.77;;;;;;;;;;5022321;28;20018;-68
2021/08/25 04:51:11;;;;;;;17.27;11.00;;;;;;;;;;5029606;28;20050;-67
2021/08/25 04:53:36;;;;;;;13.65;10.23;;;;;;;;;;5024080;28;20504;-67
2021/08/25 04:56:01;;;;;;;18.52;10.70;;;;;;;;;;5021434;28;20021;-68
2021/08/25 04:58:26;;;;;;;13.90;10.43;;;;;;;;;;5023431;28;20026;-68
2021/08/25 05:00:51;;;;;;;17.08;10.27;;;;;;;;;;5023456;28;20026;-67
2021/08/25 05:03:17;;;;;;;15.73;10.00;;;;;;;;;;5026276;28;20033;-68
2021/08/25 05:05:42;;;;;;;14.07;9.68;;;;;;;;;;5028117;28;20064;-67
2021/08/25 05:08:07;;;;;;;24.02;10.70;;;;;;;;;;5024914;28;20161;-68
2021/08/25 05:10:32;;;;;;;13.85;9.57;;;;;;;;;;5028351;28;20033;-68
2021/08/25 05:12:57;;;;;;;16.52;10.23;;;;;;;;;;5033250;28;20066;-67
2021/08/25 05:15:23;;;;;;;15.45;9.40;;;;;;;;;;5032019;28;20747;-67
2021/08/25 05:17:48;;;;;;;12.80;8.60;;;;;;;;;;5031928;28;20112;-68
2021/08/25 05:20:13;;;;;;;12.73;8.77;;;;;;;;;;5024127;28;20025;-68
2021/08/25 05:22:38;;;;;;;14.00;8.32;;;;;;;;;;5026364;28;20026;-68
2021/08/25 05:25:04;;;;;;;13.93;9.05;;;;;;;;;;5029016;28;20068;-67
2021/08/25 05:27:29;;;;;;;12.93;9.23;;;;;;;;;;5031995;28;20029;-68
2021/08/25 05:29:54;;;;;;;12.13;8.63;;;;;;;;;;5031832;28;20388;-68
2021/08/25 05:32:19;;;;;;;13.60;8.23;;;;;;;;;;5028602;28;20030;-68
2021/08/25 05:34:45;;;;;;;11.35;7.70;;;;;;;;;;5029869;28;20782;-67
2021/08/25 05:37:10;;;;;;;12.60;7.32;;;;;;;;;;5030477;28;20038;-68
2021/08/25 05:39:35;;;;;;;10.80;7.15;;;;;;;;;;5030021;28;20330;-68
2021/08/25 05:42:01;;;;;;;11.48;7.93;;;;;;;;;;5026259;28;20089;-67
2021/08/25 05:44:26;;;;;;;13.50;7.60;;;;;;;;;;5031682;28;20414;-69
2021/08/25 05:46:51;;;;;;;12.77;6.47;;;;;;;;;;5030077;28;20524;-68
2021/08/25 05:49:16;;;;;;;10.47;6.23;;;;;;;;;;5027750;28;20276;-68
2021/08/25 05:51:41;;;;;;;8.05;5.53;;;;;;;;;;5025670;28;20383;-68
2021/08/25 05:54:08;;;;;;;8.70;5.60;;;;;;;;;;5024965;28;20043;-67
2021/08/25 05:56:34;;;;;;;8.82;5.30;;;;;;;;;;5027495;28;20326;-67
2021/08/25 05:58:59;;;;;;;8.27;5.20;;;;;;;;;;5031026;28;20053;-68
2021/08/25 06:01:27;;;;;;;7.57;5.00;;;;;;;;;;5028149;28;20287;-67
2021/08/25 06:03:52;;;;;;;8.70;5.20;;;;;;;;;;5027638;28;20029;-67
2021/08/25 06:06:17;;;;;;;9.13;4.93;;;;;;;;;;5029226;28;20588;-68
2021/08/25 06:08:42;;;;;;;8.03;5.33;;;;;;;;;;5030137;28;20276;-68
2021/08/25 06:11:08;;;;;;;8.68;4.97;;;;;;;;;;5023211;28;20272;-68
2021/08/25 06:13:33;;;;;;;8.43;5.95;;;;;;;;;;5026895;28;20068;-68
2021/08/25 06:15:58;;;;;;;9.05;6.40;;;;;;;;;;5027302;28;20018;-68
2021/08/25 06:18:23;;;;;;;9.25;5.70;;;;;;;;;;5030500;28;20060;-68
2021/08/25 06:20:49;;;;;;;7.13;4.87;;;;;;;;;;5023969;28;20075;-67
2021/08/25 06:23:14;;;;;;;10.88;4.97;;;;;;;;;;5024261;28;20421;-68
2021/08/25 06:25:39;;;;;;;8.02;4.47;;;;;;;;;;5028584;28;20060;-68
2021/08/25 06:28:05;;;;;;;7.28;4.47;;;;;;;;;;5030961;28;20506;-68
2021/08/25 06:30:30;;;;;;;7.60;4.73;;;;;;;;;;5029656;28;20025;-68
2021/08/25 06:32:55;;;;;;;7.20;4.47;;;;;;;;;;5029056;28;20346;-69
2021/08/25 06:35:20;;;;;;;7.43;4.05;;;;;;;;;;5024615;28;20268;-67
2021/08/25 06:37:46;;;;;;;8.25;4.50;;;;;;;;;;5026597;28;20236;-68
2021/08/25 06:40:11;;;;;;;5.45;3.42;;;;;;;;;;5026194;28;20021;-68
2021/08/25 06:42:37;;;;;;;5.75;3.55;;;;;;;;;;5026709;28;20043;-68
2021/08/25 06:45:02;;;;;;;8.02;4.65;;;;;;;;;;5030139;28;20424;-68
2021/08/25 06:47:27;;;;;;;8.98;5.22;;;;;;;;;;5030441;28;20544;-68
2021/08/25 06:49:52;;;;;;;7.73;4.60;;;;;;;;;;5030112;28;20047;-68
2021/08/25 06:52:18;;;;;;;9.47;5.77;;;;;;;;;;5030217;28;20651;-69
2021/08/25 06:54:43;;;;;;;9.30;5.17;;;;;;;;;;5030611;28;20248;-68
2021/08/25 06:57:08;;;;;;;8.70;4.80;;;;;;;;;;5030027;28;20276;-68
2021/08/25 06:59:33;;;;;;;7.03;4.50;;;;;;;;;;5026790;28;20350;-69
2021/08/25 07:01:58;;;;;;;8.73;5.10;;;;;;;;;;5024998;28;20056;-68
2021/08/25 07:04:23;;;;;;;10.88;4.45;;;;;;;;;;5025861;28;20062;-68
2021/08/25 07:06:49;;;;;;;9.87;5.03;;;;;;;;;;5025807;28;20044;-67
2021/08/25 07:09:14;;;;;;;8.43;4.40;;;;;;;;;;5023786;28;20286;-69
2021/08/25 07:11:41;;;;;;;7.23;4.80;;;;;;;;;;5029211;28;20057;-69
2021/08/25 07:14:06;;;;;;;8.20;4.45;;;;;;;;;;5029189;28;20355;-67
2021/08/25 07:16:34;;;;;;;8.25;4.13;;;;;;;;;;5028842;28;20117;-68
2021/08/25 07:19:00;;;;;;;7.57;3.88;;;;;;;;;;5029744;28;20025;-69
2021/08/25 07:21:25;;;;;;;10.98;4.60;;;;;;;;;;5027534;28;20108;-67
2021/08/25 07:23:50;;;;;;;7.53;4.60;;;;;;;;;;5024191;28;20096;-67
2021/08/25 07:26:16;;;;;;;7.15;3.95;;;;;;;;;;5025482;28;20283;-67
2021/08/25 07:28:43;;;;;;;6.57;4.05;;;;;;;;;;5029185;28;20029;-68
2021/08/25 07:31:09;;;;;;;7.15;3.83;;;;;;;;;;5025160;28;20448;-67
2021/08/25 07:33:34;;;;;;;6.85;4.25;;;;;;;;;;5022009;28;20033;-67
2021/08/25 07:35:59;;;;;;;6.40;3.63;;;;;;;;;;5029473;28;20072;-66
2021/08/25 07:38:24;;;;;;;5.88;3.50;;;;;;;;;;5029308;28;20072;-67
2021/08/25 07:40:49;;;;;;;7.53;3.80;;;;;;;;;;5029528;28;20029;-67
2021/08/25 07:43:15;;;;;;;6.53;3.67;;;;;;;;;;5029184;28;20280;-67
2021/08/25 07:45:40;;;;;;;7.22;3.70;;;;;;;;;;5028360;28;20573;-68
2021/08/25 07:48:05;;;;;;;7.30;3.80;;;;;;;;;;5017930;28;20393;-67
2021/08/25 07:50:30;;;;;;;13.07;3.40;;;;;;;;;;5029201;28;20045;-67
2021/08/25 07:52:55;;;;;;;9.27;3.45;;;;;;;;;;5029119;28;20068;-67
2021/08/25 07:55:21;;;;;;;4.90;3.10;;;;;;;;;;5029171;28;20052;-67
2021/08/25 07:57:46;;;;;;;5.95;3.10;;;;;;;;;;5025487;28;20120;-67
2021/08/25 08:00:11;;;;;;;4.60;2.67;;;;;;;;;;5027033;28;20076;-67
2021/08/25 08:02:36;;;;;;;6.90;3.45;;;;;;;;;;5025919;28;20037;-67
2021/08/25 08:05:03;;;;;;;6.75;3.85;;;;;;;;;;5029162;28;20020;-67
2021/08/25 08:07:29;;;;;;;9.27;4.25;;;;;;;;;;5028344;28;20616;-67
2021/08/25 08:09:54;;;;;;;6.57;3.80;;;;;;;;;;5027538;28;20032;-67
2021/08/25 08:12:19;;;;;;;6.57;4.07;;;;;;;;;;5022858;28;20104;-68
2021/08/25 08:14:44;;;;;;;6.37;3.93;;;;;;;;;;5021492;28;20307;-68
2021/08/25 08:17:09;;;;;;;5.75;3.53;;;;;;;;;;5023245;28;20694;-67
2021/08/25 08:19:34;;;;;;;6.72;3.75;;;;;;;;;;5025149;28;20120;-68
2021/08/25 08:22:01;;;;;;;8.98;4.28;;;;;;;;;;5027818;28;20095;-68
2021/08/25 08:24:26;;;;;;;6.05;3.63;;;;;;;;;;5028987;28;20026;-68
2021/08/25 08:26:51;;;;;;;6.80;3.40;;;;;;;;;;5029145;28;20022;-68
2021/08/25 08:29:17;;;;;;;6.47;3.70;;;;;;;;;;5028590;28;20271;-68
2021/08/25 08:31:42;;;;;;;7.93;3.30;;;;;;;;;;5029015;28;20030;-68
2021/08/25 08:34:07;;;;;;;7.30;4.25;;;;;;;;;;5028637;28;20456;-67
2021/08/25 08:36:32;;;;;;;7.03;3.92;;;;;;;;;;5029110;28;20041;-69
2021/08/25 08:38:57;;;;;;;5.70;3.45;;;;;;;;;;5028609;28;20083;-67
2021/08/25 08:41:23;;;;;;;5.70;2.97;;;;;;;;;;5031548;28;20100;-67
2021/08/25 08:43:49;;;;;;;5.55;2.90;;;;;;;;;;5032517;28;20021;-67
2021/08/25 08:46:15;;;;;;;6.85;3.33;;;;;;;;;;5032760;28;20079;-67
2021/08/25 08:48:41;;;;;;;5.90;3.67;;;;;;;;;;5032660;28;20104;-67
2021/08/25 08:51:08;;;;;;;8.35;4.22;;;;;;;;;;5035468;28;20132;-68
2021/08/25 08:53:33;;;;;;;5.60;3.97;;;;;;;;;;5032633;28;20036;-68
2021/08/25 08:55:58;;;;;;;9.55;4.13;;;;;;;;;;5032348;28;20472;-67
2021/08/25 08:58:24;;;;;;;9.80;3.80;;;;;;;;;;5032610;28;20061;-68
2021/08/25 09:00:49;;;;;;;6.40;3.60;;;;;;;;;;5032326;28;20023;-68
2021/08/25 09:03:21;;;;;;;5.55;3.40;;;;;;;;;;5032204;28;20064;-68
2021/08/25 09:05:52;;;;;;;8.25;3.60;;;;;;;;;;5032185;28;20021;-68
2021/08/25 09:08:21;;;;;;;8.98;3.63;;;;;;;;;;5031907;28;20028;-68
2021/08/25 09:10:46;;;;;;;8.00;3.58;;;;;;;;;;5032406;28;20043;-68
2021/08/25 09:13:11;;;;;;;5.45;3.13;;;;;;;;;;5032045;28;20480;-67
2021/08/25 09:15:40;;;;;;;8.43;3.53;;;;;;;;;;5030524;28;20095;-68
2021/08/25 09:18:10;;;;;;;5.72;3.58;;;;;;;;;;5031963;28;20562;-68
2021/08/25 09:20:40;;;;;;;6.28;3.13;;;;;;;;;;5032079;28;20494;-68
2021/08/25 09:23:05;;;;;;;6.63;3.65;;;;;;;;;;5031874;28;20075;-67
2021/08/25 09:25:31;;;;;;;6.18;3.75;;;;;;;;;;5032193;28;20029;-68
2021/08/25 09:27:56;;;;;;;6.35;3.30;;;;;;;;;;5032067;28;20100;-68
2021/08/25 09:30:22;;;;;;;6.23;3.73;;;;;;;;;;5031826;28;20108;-68
2021/08/25 09:32:47;;;;;;;6.40;3.00;;;;;;;;;;5031770;28;20315;-68
2021/08/25 09:35:12;;;;;;;7.40;3.00;;;;;;;;;;5031611;28;20425;-68
2021/08/25 09:37:37;;;;;;;6.17;3.37;;;;;;;;;;5031663;28;20380;-69
2021/08/25 09:40:06;;;;;;;8.82;3.20;;;;;;;;;;5031265;28;20334;-68
2021/08/25 09:42:40;;;;;;;7.33;3.50;;;;;;;;;;5031600;28;20472;-67
2021/08/25 09:45:06;;;;;;;8.02;4.05;;;;;;;;;;5025754;28;20079;-68
2021/08/25 09:47:52;;;;;;;5.55;3.20;;;;;;;;;;5031661;28;20407;-68
2021/08/25 09:50:19;;;;;;;7.07;3.47;;;;;;;;;;5030631;28;20497;-69
2021/08/25 09:52:44;;;;;;;6.88;3.50;;;;;;;;;;5030244;28;20112;-68
2021/08/25 09:55:10;;;;;;;7.25;3.60;;;;;;;;;;5031365;28;20085;-68
2021/08/25 09:57:36;;;;;;;7.40;4.00;;;;;;;;;;5031249;28;20017;-69
2021/08/25 10:00:02;;;;;;;7.45;3.92;;;;;;;;;;5031027;28;20584;-68
2021/08/25 10:02:27;;;;;;;7.28;3.80;;;;;;;;;;5031095;28;20013;-68
2021/08/25 10:04:54;;;;;;;6.38;3.08;;;;;;;;;;5031333;28;20024;-68
2021/08/25 10:07:19;;;;;;;5.25;2.70;;;;;;;;;;5031143;28;20067;-68
2021/08/25 10:09:44;;;;;;;7.97;3.10;;;;;;;;;;5030985;28;20018;-68
2021/08/25 10:12:10;;;;;;;6.90;3.03;;;;;;;;;;5030721;28;20296;-68
2021/08/25 10:14:36;;;;;;;5.95;3.10;;;;;;;;;;5029673;28;20027;-67
2021/08/25 10:17:02;;;;;;;10.07;3.15;;;;;;;;;;5030524;28;20047;-68
2021/08/25 10:19:38;;;;;;;7.05;3.00;;;;;;;;;;5031196;28;20014;-67
2021/08/25 10:22:10;;;;;;;5.82;3.20;;;;;;;;;;5024760;28;20108;-67
2021/08/25 10:24:53;;;;;;;7.07;3.50;;;;;;;;;;5029470;28;20022;-67
2021/08/25 10:27:19;;;;;;;10.95;3.97;;;;;;;;;;5028723;28;20022;-69
2021/08/25 10:30:17;;;;;;;5.90;2.83;;;;;;;;;;5031128;28;20039;-67
2021/08/25 10:32:51;;;;;;;6.25;3.28;;;;;;;;;;5001569;28;20120;-67
2021/08/25 10:35:23;;;;;;;4.95;3.10;;;;;;;;;;5007781;28;20396;-68
2021/08/25 10:37:49;;;;;;;5.97;2.95;;;;;;;;;;5008163;28;20028;-68
2021/08/25 10:40:19;;;;;;;5.40;3.45;;;;;;;;;;5008214;28;20030;-67
2021/08/25 10:42:46;;;;;;;5.10;2.63;;;;;;;;;;5008173;28;20034;-67
2021/08/25 10:45:11;;;;;;;6.05;3.42;;;;;;;;;;5007490;28;20025;-67
2021/08/25 10:47:58;;;;;;;7.53;3.85;;;;;;;;;;5008021;28;20496;-68
2021/08/25 10:50:24;;;;;;;8.80;4.10;;;;;;;;;;5011690;28;20077;-68
2021/08/25 10:52:49;;;;;;;13.30;3.95;;;;;;;;;;5007893;28;20080;-69
2021/08/25 10:55:15;;;;;;;6.45;3.42;;;;;;;;;;5007923;28;20033;-68
2021/08/25 10:57:44;;;;;;;7.17;3.83;;;;;;;;;;4991175;28;20480;-68
2021/08/25 11:00:10;;;;;;;6.77;3.57;;;;;;;;;;5007761;28;20253;-68
2021/08/25 11:02:38;;;;;;;5.70;3.28;;;;;;;;;;5007323;28;20030;-68
2021/08/25 11:05:03;;;;;;;5.00;2.95;;;;;;;;;;5007262;28;20014;-68
2021/08/25 11:07:28;;;;;;;7.32;3.72;;;;;;;;;;5011254;28;20037;-69
2021/08/25 11:09:54;;;;;;;6.60;3.65;;;;;;;;;;5029916;28;20107;-68
2021/08/25 11:12:20;;;;;;;6.65;3.67;;;;;;;;;;5030157;28;20116;-68
2021/08/25 11:14:46;;;;;;;7.88;3.38;;;;;;;;;;5029651;28;20017;-68
2021/08/25 11:17:20;;;;;;;7.50;3.33;;;;;;;;;;5029648;28;20036;-68
2021/08/25 11:19:46;;;;;;;7.57;3.17;;;;;;;;;;5029627;28;20028;-68
2021/08/25 11:22:16;;;;;;;8.20;3.97;;;;;;;;;;5029746;28;20034;-69
2021/08/25 11:24:41;;;;;;;;;;;;;;;;;;5029984;28;20582;-68
2021/08/25 11:27:17;;;;;;;7.47;3.87;;;;;;;;;;5029638;28;19905;-68
2021/08/25 11:29:42;;;;;;;6.80;3.92;;;;;;;;;;5030039;28;20721;-67
2021/08/25 11:32:07;;;;;;;6.63;3.45;;;;;;;;;;5029405;28;20068;-68
2021/08/25 11:34:33;;;;;;;7.47;3.97;;;;;;;;;;5029455;28;20078;-68
2021/08/25 11:37:00;;;;;;;7.65;3.65;;;;;;;;;;5029297;28;20629;-68
2021/08/25 11:39:25;;;;;;;5.93;3.45;;;;;;;;;;5028263;28;20028;-68
2021/08/25 11:41:51;;;;;;;5.32;2.97;;;;;;;;;;5029832;28;20407;-68
2021/08/25 11:44:33;;;;;;;8.10;4.18;;;;;;;;;;5028329;28;20834;-68
2021/08/25 11:47:12;;;;;;;4.97;2.90;;;;;;;;;;5018053;28;20207;-68
2021/08/25 11:49:38;;;;;;;8.40;4.10;;;;;;;;;;5029964;28;20053;-68
2021/08/25 11:52:03;;;;;;;7.30;3.90;;;;;;;;;;5032457;28;20106;-67
2021/08/25 11:54:28;;;;;;;5.45;3.00;;;;;;;;;;5029203;28;20025;-68
2021/08/25 11:56:54;;;;;;;6.15;3.83;;;;;;;;;;5028886;28;20041;-68
2021/08/25 11:59:19;;;;;;;7.45;4.00;;;;;;;;;;5028930;28;20033;-68
2021/08/25 12:01:44;;;;;;;6.20;3.40;;;;;;;;;;5028903;28;20022;-68
2021/08/25 12:04:09;;;;;;;7.20;3.13;;;;;;;;;;5028789;28;20025;-68
2021/08/25 12:06:41;;;;;;;6.90;4.00;;;;;;;;;;5027492;28;20049;-68
2021/08/25 12:09:06;;;;;;;8.27;3.92;;;;;;;;;;5029100;28;20253;-68
2021/08/25 12:11:32;;;;;;;8.85;4.20;;;;;;;;;;5028985;28;20040;-68
2021/08/25 12:13:57;;;;;;;8.33;3.87;;;;;;;;;;5029230;28;20104;-68
2021/08/25 12:16:25;;;;;;;8.60;3.28;;;;;;;;;;5028639;28;20248;-67
2021/08/25 12:18:51;;;;;;;9.48;4.10;;;;;;;;;;5022871;28;20476;-68
2021/08/25 12:21:18;;;;;;;6.97;3.67;;;;;;;;;;5023287;28;20491;-67
2021/08/25 12:23:55;;;;;;;7.13;4.00;;;;;;;;;;5029176;28;20027;-68
2021/08/25 12:26:20;;;;;;;6.10;3.47;;;;;;;;;;5023206;28;20025;-68
2021/08/25 12:28:45;;;;;;;6.25;4.18;;;;;;;;;;5029076;28;20083;-68
2021/08/25 12:31:13;;;;;;;9.43;4.00;;;;;;;;;;5028995;28;20036;-68
2021/08/25 12:33:39;;;;;;;5.90;2.90;;;;;;;;;;5029248;28;20335;-68
2021/08/25 12:36:23;;;;;;;7.35;3.92;;;;;;;;;;5028570;28;20488;-67
2021/08/25 12:38:49;;;;;;;7.18;3.90;;;;;;;;;;5029008;28;20049;-67
2021/08/25 12:41:15;;;;;;;6.45;3.55;;;;;;;;;;5028695;28;20132;-67
2021/08/25 12:43:40;;;;;;;7.68;4.32;;;;;;;;;;5028595;28;20484;-67
2021/08/25 12:46:05;;;;;;;5.95;3.03;;;;;;;;;;5033829;28;20103;-66
2021/08/25 12:48:31;;;;;;;7.45;3.42;;;;;;;;;;5028051;28;20084;-68
2021/08/25 12:50:56;;;;;;;7.43;4.27;;;;;;;;;;5027328;28;20053;-67
2021/08/25 12:53:21;;;;;;;7.30;4.03;;;;;;;;;;5028118;28;20314;-69
2021/08/25 12:55:46;;;;;;;6.93;4.30;;;;;;;;;;5022067;28;20280;-70
2021/08/25 12:58:11;;;;;;;8.17;3.93;;;;;;;;;;5026167;28;20075;-69
2021/08/25 13:00:38;;;;;;;7.75;3.63;;;;;;;;;;5027620;28;20257;-68
2021/08/25 13:03:04;;;;;;;9.23;3.72;;;;;;;;;;5021232;28;20041;-69
2021/08/25 13:05:29;;;;;;;9.65;3.78;;;;;;;;;;5028635;28;20361;-60
2021/08/25 13:07:55;;;;;;;7.32;3.40;;;;;;;;;;5025860;28;20028;-60
2021/08/25 13:10:20;;;;;;;8.53;3.70;;;;;;;;;;5028802;28;20032;-60
2021/08/25 13:12:45;;;;;;;9.83;4.67;;;;;;;;;;5026910;28;20662;-61
2021/08/25 13:15:10;;;;;;;9.90;4.60;;;;;;;;;;5025178;28;20256;-59
2021/08/25 13:17:35;;;;;;;7.63;4.60;;;;;;;;;;5026407;28;20358;-60
2021/08/25 13:20:01;;;;;;;6.32;3.17;;;;;;;;;;5030806;28;20535;-60
2021/08/25 13:22:26;;;;;;;8.23;3.67;;;;;;;;;;5025117;28;20453;-59
2021/08/25 13:24:51;;;;;;;6.97;3.80;;;;;;;;;;5022660;28;20032;-60
2021/08/25 13:27:16;;;;;;;6.07;3.13;;;;;;;;;;5028792;28;20017;-61
2021/08/25 13:29:41;;;;;;;7.72;4.40;;;;;;;;;;5024331;28;20272;-61
2021/08/25 13:32:06;;;;;;;6.50;3.00;;;;;;;;;;5031238;28;20136;-61
2021/08/25 13:34:32;;;;;;;9.05;4.25;;;;;;;;;;5031218;28;20333;-60
2021/08/25 13:36:57;;;;;;;6.32;3.00;;;;;;;;;;5022543;28;20499;-60
2021/08/25 13:39:22;;;;;;;7.60;4.00;;;;;;;;;;5031293;28;20121;-60
2021/08/25 13:41:47;;;;;;;7.07;3.33;;;;;;;;;;5027743;28;20260;-60
2021/08/25 13:44:12;;;;;;;8.93;4.28;;;;;;;;;;5027731;28;20277;-60
2021/08/25 13:46:38;;;;;;;7.80;3.63;;;;;;;;;;5025711;28;20084;-60
2021/08/25 13:49:03;;;;;;;7.95;3.90;;;;;;;;;;5030517;28;20653;-60
2021/08/25 13:51:28;;;;;;;8.03;3.63;;;;;;;;;;5027390;28;20444;-61
2021/08/25 13:53:53;;;;;;;7.17;3.77;;;;;;;;;;5031455;28;20300;-60
2021/08/25 13:56:18;;;;;;;8.63;3.95;;;;;;;;;;5023560;28;20586;-59
2021/08/25 13:58:43;;;;;;;7.33;3.90;;;;;;;;;;5027296;28;20476;-60
2021/08/25 14:01:09;;;;;;;7.15;3.55;;;;;;;;;;5028085;28;20338;-60
2021/08/25 14:03:34;;;;;;;8.70;4.28;;;;;;;;;;5025192;28;20021;-61
2021/08/25 14:05:59;;;;;;;7.15;3.65;;;;;;;;;;5024081;28;20029;-61
2021/08/25 14:08:24;;;;;;;6.25;3.60;;;;;;;;;;5031115;28;20021;-59
2021/08/25 14:10:49;;;;;;;6.63;4.57;;;;;;;;;;5023797;28;20021;-61
2021/08/25 14:13:15;;;;;;;6.10;3.40;;;;;;;;;;5022523;28;20037;-59
2021/08/25 14:15:40;;;;;;;7.97;4.20;;;;;;;;;;5028952;28;20379;-60
2021/08/25 14:18:05;;;;;;;8.02;4.10;;;;;;;;;;5023322;28;20025;-60
2021/08/25 14:20:31;;;;;;;6.70;3.72;;;;;;;;;;5021055;28;20022;-61
2021/08/25 14:22:56;;;;;;;7.97;3.85;;;;;;;;;;5029217;28;20067;-60
2021/08/25 14:25:21;;;;;;;8.85;3.72;;;;;;;;;;5026485;28;20033;-62
2021/08/25 14:27:46;;;;;;;7.88;4.03;;;;;;;;;;5039913;28;20181;-60
2021/08/25 14:30:12;;;;;;;8.32;4.38;;;;;;;;;;5027954;28;20079;-61
2021/08/25 14:32:37;;;;;;;7.78;3.83;;;;;;;;;;5030402;28;20036;-61